createdAt,value
2023-03-29T00:05:33.982Z,-2.1
2023-03-29T00:11:09.896Z,-2.1
2023-03-29T00:17:01.536Z,-2.1
2023-03-29T00:22:53.302Z,-2.1
2023-03-29T00:28:45.364Z,-2.2
2023-03-29T00:34:22.160Z,-2.3
2023-03-29T00:40:13.841Z,-2.3
2023-03-29T00:45:34.979Z,-2.4
2023-03-29T00:50:55.867Z,-2.4
2023-03-29T00:56:32.273Z,-2.5
2023-03-29T01:02:09.009Z,-2.5
2023-03-29T01:07:45.717Z,-2.5
2023-03-29T01:13:05.866Z,-2.5
2023-03-29T01:18:42.579Z,-2.5
2023-03-29T01:24:33.744Z,-2.6
2023-03-29T01:30:24.894Z,-2.6
2023-03-29T01:36:16.963Z,-2.6
2023-03-29T01:42:08.528Z,-2.6
2023-03-29T01:47:29.004Z,-2.6
2023-03-29T01:53:06.097Z,-2.7
2023-03-29T01:58:42.457Z,-2.7
2023-03-29T02:04:34.503Z,-2.8
2023-03-29T02:10:26.287Z,-2.8
2023-03-29T02:16:18.046Z,-2.8
2023-03-29T02:21:54.779Z,-2.8
2023-03-29T02:27:31.270Z,-2.9
2023-03-29T02:33:23.468Z,-2.8
2023-03-29T02:38:59.395Z,-2.9
2023-03-29T02:44:37.840Z,-2.9
2023-03-29T02:49:59.309Z,-2.9
2023-03-29T02:55:50.992Z,-2.9
2023-03-29T03:01:42.878Z,-2.9
2023-03-29T03:07:19.077Z,-2.9
2023-03-29T03:13:10.160Z,-2.8
2023-03-29T03:19:05.697Z,-2.8
2023-03-29T03:24:42.472Z,-2.8
2023-03-29T03:30:18.437Z,-2.8
2023-03-29T03:36:10.833Z,-2.8
2023-03-29T03:41:47.379Z,-2.8
2023-03-29T03:47:11.921Z,-2.7
2023-03-29T03:52:33.264Z,-2.8
2023-03-29T03:58:24.960Z,-2.8
2023-03-29T04:04:02.247Z,-2.8
2023-03-29T04:09:54.418Z,-2.8
2023-03-29T04:15:31.185Z,-2.8
2023-03-29T04:21:24.530Z,-2.8
2023-03-29T04:27:16.597Z,-2.8
2023-03-29T04:33:09.047Z,-2.7
2023-03-29T04:39:04.429Z,-2.6
2023-03-29T04:44:40.943Z,-2.4
2023-03-29T04:50:17.806Z,-2.3
2023-03-29T04:56:08.478Z,-1.8
2023-03-29T05:02:03.063Z,-1.1
2023-03-29T05:07:54.504Z,0.8
2023-03-29T05:13:48.598Z,3.3
2023-03-29T05:19:41.286Z,5.6
2023-03-29T05:25:32.670Z,7.6
2023-03-29T05:31:23.384Z,9.6
2023-03-29T05:36:59.905Z,11.9
2023-03-29T05:42:28.145Z,14.8
2023-03-29T05:48:04.934Z,18
2023-03-29T05:53:41.819Z,20.1
2023-03-29T05:59:34.050Z,19.9
2023-03-29T06:05:38.467Z,18.8
2023-03-29T06:11:30.639Z,18.6
2023-03-29T06:17:22.816Z,22.4
2023-03-29T06:23:14.179Z,27.3
2023-03-29T06:29:08.654Z,31.4
2023-03-29T06:35:01.309Z,31.2
2023-03-29T06:40:22.307Z,29.3
2023-03-29T06:46:26.745Z,28
2023-03-29T06:52:02.706Z,29.8
2023-03-29T06:57:54.459Z,35.2
2023-03-29T07:03:31.268Z,38.9
2023-03-29T07:08:52.753Z,40.8
2023-03-29T07:14:46.316Z,38.3
2023-03-29T07:20:23.355Z,37.5
2023-03-29T07:25:44.120Z,39.3
2023-03-29T07:32:04.490Z,39.3
2023-03-29T07:37:42.506Z,41.4
2023-03-29T07:43:18.788Z,45.5
2023-03-29T07:49:09.661Z,38.8
2023-03-29T07:55:01.255Z,27.6
2023-03-29T08:00:53.274Z,30
2023-03-29T08:06:46.169Z,41.3
2023-03-29T08:12:07.308Z,42.3
2023-03-29T08:17:44.825Z,34.1
2023-03-29T08:23:32.064Z,39.1
2023-03-29T08:29:24.137Z,44.5
2023-03-29T08:35:16.770Z,40.4
2023-03-29T08:40:53.194Z,40.8
2023-03-29T08:46:35.051Z,41.1
2023-03-29T08:51:56.646Z,44.3
2023-03-29T08:57:01.764Z,45.7
2023-03-29T09:02:38.110Z,47.1
2023-03-29T09:08:00.372Z,48.7
2023-03-29T09:13:37.096Z,49.4
2023-03-29T09:19:14.820Z,50.6
2023-03-29T09:24:52.076Z,51.4
2023-03-29T09:35:46.543Z,53.6
2023-03-29T09:41:38.136Z,54.6
2023-03-29T09:47:23.530Z,55.3
2023-03-29T09:53:12.474Z,55.5
2023-03-29T09:58:49.784Z,56.3
2023-03-29T10:04:26.964Z,57.3
2023-03-29T10:10:06.223Z,57.8
2023-03-29T10:15:53.497Z,57.8
2023-03-29T10:21:33.314Z,58.1
2023-03-29T10:26:55.960Z,58.4
2023-03-29T10:32:32.910Z,58.6
2023-03-29T10:38:09.571Z,59.1
2023-03-29T10:43:45.402Z,59.2
2023-03-29T10:49:06.436Z,59.8
2023-03-29T10:54:43.333Z,59.5
2023-03-29T11:00:19.782Z,59.3
2023-03-29T11:05:41.958Z,59.3
2023-03-29T11:11:17.807Z,58.8
2023-03-29T11:17:06.467Z,59.5
2023-03-29T11:22:12.419Z,59.8
2023-03-29T11:27:33.596Z,59.6
2023-03-29T11:33:10.855Z,59.8
2023-03-29T11:38:32.038Z,59.9
2023-03-29T11:44:08.188Z,61.1
2023-03-29T11:49:45.267Z,67.9
2023-03-29T11:55:08.080Z,66.9
2023-03-29T12:00:44.898Z,57.4
2023-03-29T12:06:23.673Z,61.2
2023-03-29T12:12:02.979Z,66.4
2023-03-29T12:17:23.444Z,69.1
2023-03-29T12:23:03.093Z,63.7
2023-03-29T12:28:39.677Z,56.3
2023-03-29T12:34:01.040Z,60.9
2023-03-29T12:39:53.501Z,64.2
2023-03-29T12:45:45.221Z,65.9
2023-03-29T12:51:38.204Z,66.7
2023-03-29T12:57:30.708Z,67.2
2023-03-29T13:03:08.234Z,66.8
2023-03-29T13:08:59.399Z,66
2023-03-29T13:14:51.014Z,63.3
2023-03-29T13:20:57.815Z,57.8
2023-03-29T13:26:48.856Z,53.1
2023-03-29T13:32:41.066Z,50.9
2023-03-29T13:38:17.744Z,48.6
2023-03-29T13:44:08.995Z,46.4
2023-03-29T13:50:16.447Z,45.4
2023-03-29T13:56:11.527Z,46.6
2023-03-29T14:02:02.943Z,47.4
2023-03-29T14:07:55.196Z,47.2
2023-03-29T14:13:47.075Z,46.7
2023-03-29T14:19:45.814Z,45.5
2023-03-29T14:25:38.065Z,44
2023-03-29T14:31:14.635Z,43.1
2023-03-29T14:37:06.764Z,42.2
2023-03-29T14:42:59.075Z,40.8
2023-03-29T14:48:51.274Z,38.9
2023-03-29T14:54:41.768Z,37.1
2023-03-29T15:00:34.424Z,35.3
2023-03-29T15:06:29.277Z,33.4
2023-03-29T15:12:30.162Z,32
2023-03-29T15:19:40.150Z,29.9
2023-03-29T15:25:15.434Z,28.1
2023-03-29T15:31:23.075Z,26.3
2023-03-29T15:37:18.560Z,24.6
2023-03-29T15:43:21.003Z,22.5
2023-03-29T15:49:12.482Z,20.6
2023-03-29T15:55:15.430Z,18.8
2023-03-29T16:01:08.006Z,17.3
2023-03-29T16:06:59.613Z,16
2023-03-29T16:12:37.792Z,14.9
2023-03-29T16:18:30.857Z,14
2023-03-29T16:24:21.584Z,13.3
2023-03-29T16:29:42.187Z,12.6
2023-03-29T16:35:35.435Z,11.9
2023-03-29T16:41:26.555Z,11.3
2023-03-29T16:47:03.694Z,10.7
2023-03-29T16:52:24.840Z,10.1
2023-03-29T16:58:16.044Z,9.6
2023-03-29T17:04:11.127Z,9
2023-03-29T17:10:03.692Z,8.5
2023-03-29T17:15:40.499Z,8.1
2023-03-29T17:21:32.680Z,7.7
2023-03-29T17:27:24.010Z,7.3
2023-03-29T17:33:15.876Z,7
2023-03-29T17:39:08.218Z,6.7
2023-03-29T17:45:00.656Z,6.4
2023-03-29T17:50:56.061Z,6.1
2023-03-29T17:56:48.090Z,5.9
2023-03-29T18:02:41.020Z,5.7
2023-03-29T18:08:32.449Z,5.6
2023-03-29T18:14:24.539Z,5.3
2023-03-29T18:20:16.711Z,5.1
2023-03-29T18:25:51.853Z,4.9
2023-03-29T18:31:28.338Z,4.8
2023-03-29T18:37:24.680Z,4.6
2023-03-29T18:43:16.155Z,4.3
2023-03-29T18:49:08.545Z,4.1
2023-03-29T18:55:02.756Z,3.9
2023-03-29T19:00:56.023Z,3.7
2023-03-29T19:06:33.624Z,3.5
2023-03-29T19:11:54.934Z,3.4
2023-03-29T19:17:46.747Z,3.3
2023-03-29T19:23:38.888Z,3.3
2023-03-29T19:29:30.983Z,3.2
2023-03-29T19:35:24.394Z,3.1
2023-03-29T19:40:45.247Z,3.1
2023-03-29T19:46:37.929Z,3.1
2023-03-29T19:52:36.204Z,3.1
2023-03-29T19:58:28.749Z,3.1
2023-03-29T20:04:06.119Z,3.1
2023-03-29T20:09:44.691Z,3.1
2023-03-29T20:15:52.887Z,3.1
2023-03-29T20:21:29.482Z,3.1
2023-03-29T20:27:21.055Z,3.1
2023-03-29T20:33:13.030Z,3.1
2023-03-29T20:39:05.829Z,3.1
2023-03-29T20:45:01.051Z,3.1
2023-03-29T20:50:52.755Z,3.2
2023-03-29T20:56:45.241Z,3.2
2023-03-29T21:02:36.325Z,3.3
2023-03-29T21:08:15.052Z,3.3
2023-03-29T21:14:10.182Z,3.4
2023-03-29T21:20:01.803Z,3.5
2023-03-29T21:25:36.767Z,3.6
2023-03-29T21:31:29.109Z,3.7
2023-03-29T21:37:21.738Z,3.8
2023-03-29T21:43:13.005Z,3.8
2023-03-29T21:49:05.631Z,3.9
2023-03-29T21:54:56.604Z,3.9
2023-03-29T22:00:16.921Z,4
2023-03-29T22:06:20.860Z,4.1
2023-03-29T22:12:12.712Z,4.1
2023-03-29T22:18:04.629Z,4.2
2023-03-29T22:23:56.909Z,4.3
2023-03-29T22:29:48.781Z,4.3
2023-03-29T22:35:41.120Z,4.3
2023-03-29T22:41:33.544Z,4.4
2023-03-29T22:47:25.791Z,4.5
2023-03-29T22:53:17.210Z,4.6
2023-03-29T22:58:54.040Z,4.6
2023-03-29T23:04:30.864Z,4.7
2023-03-29T23:10:21.768Z,4.7
2023-03-29T23:16:13.038Z,4.8
2023-03-29T23:21:48.649Z,4.8
2023-03-29T23:27:42.159Z,4.8
2023-03-29T23:33:34.120Z,4.9
2023-03-29T23:39:10.189Z,4.9
2023-03-29T23:45:02.463Z,4.9
2023-03-29T23:50:54.357Z,4.9
2023-03-29T23:56:45.537Z,4.9
